Time;durP1;ratioP1;P1;durP2;ratioP2;P2;SDS_P1;SDS_P2;PMS_P1;PMS_P2;Temp;Humidity;BMP_temperature;BMP_pressure;BME280_temperature;BME280_humidity;BME280_pressure;Samples;Min_cycle;Max_cycle;Signal;HPM_P1;HPM_P2
2021/12/30 00:02:48;;;;;;;147.3;166.8;;;;;;;1.3;81.2;98370;;;;
2021/12/30 00:12:50;;;;;;;147.3;166.8;;;;;;;1.2;80.7;98370;;;;
2021/12/30 00:23:48;;;;;;;227.2;260.8;;;;;;;1.1;81.4;98380;;;;
2021/12/30 00:33:48;;;;;;;227.2;260.8;;;;;;;1.1;81.5;98390;;;;
2021/12/30 00:44:48;;;;;;;227.2;260.8;;;;;;;1.2;81.2;98400;;;;
2021/12/30 00:54:48;;;;;;;195.5;218.7;;;;;;;1.4;81.4;98400;;;;
2021/12/30 01:05:48;;;;;;;195.5;218.7;;;;;;;1.6;81.2;98410;;;;
2021/12/30 01:15:57;;;;;;;194.2;217.1;;;;;;;1.7;80.8;98410;;;;
2021/12/30 01:26:48;;;;;;;194.2;217.1;;;;;;;1.6;80.2;98400;;;;
2021/12/30 01:37:48;;;;;;;194.2;217.1;;;;;;;1.7;80.8;98420;;;;
2021/12/30 01:48:48;;;;;;;174;195.3;;;;;;;1.6;81.9;98420;;;;
2021/12/30 01:58:48;;;;;;;174;195.3;;;;;;;1.8;81.4;98420;;;;
2021/12/30 02:09:49;;;;;;;174;195.3;;;;;;;1.7;80.9;98400;;;;
2021/12/30 02:20:48;;;;;;;126.7;146.6;;;;;;;1.6;80.3;98400;;;;
2021/12/30 02:30:48;;;;;;;126.7;146.6;;;;;;;1.5;80.4;98400;;;;
2021/12/30 02:41:48;;;;;;;126.7;146.6;;;;;;;1.4;80.2;98420;;;;
2021/12/30 02:51:48;;;;;;;131.3;153.7;;;;;;;1.2;80.2;98420;;;;
2021/12/30 03:02:48;;;;;;;131.3;153.7;;;;;;;1;80.4;98400;;;;
2021/12/30 03:12:52;;;;;;;131.3;153.7;;;;;;;1.1;80.7;98390;;;;
2021/12/30 03:23:48;;;;;;;205.4;229.9;;;;;;;1.2;80.7;98390;;;;
2021/12/30 03:34:48;;;;;;;205.4;229.9;;;;;;;1.3;80.5;98430;;;;
2021/12/30 03:44:48;;;;;;;205.4;229.9;;;;;;;1.3;80.5;98450;;;;
2021/12/30 03:54:48;;;;;;;202.2;226.6;;;;;;;1.4;80.7;98480;;;;
2021/12/30 04:05:48;;;;;;;202.2;226.6;;;;;;;1.4;80.4;98490;;;;
2021/12/30 04:16:48;;;;;;;200.8;224.8;;;;;;;1.3;80.9;98470;;;;
2021/12/30 04:26:50;;;;;;;200.8;224.8;;;;;;;1.4;80.9;98480;;;;
2021/12/30 04:37:48;;;;;;;200.8;224.8;;;;;;;1.5;81;98490;;;;
2021/12/30 04:48:49;;;;;;;182.7;205;;;;;;;1.7;80.8;98520;;;;
2021/12/30 04:58:48;;;;;;;182.7;205;;;;;;;1.8;80.6;98520;;;;
2021/12/30 05:09:48;;;;;;;182.7;205;;;;;;;1.9;80.6;98540;;;;
2021/12/30 05:19:48;;;;;;;148.2;169.1;;;;;;;2;80.4;98550;;;;
2021/12/30 05:29:48;;;;;;;148.2;169.1;;;;;;;1.8;80.4;98540;;;;
2021/12/30 05:40:48;;;;;;;148.2;169.1;;;;;;;1.6;80.4;98530;;;;
2021/12/30 05:50:48;;;;;;;168.4;188.1;;;;;;;1.6;80.5;98530;;;;
2021/12/30 06:01:48;;;;;;;168.4;188.1;;;;;;;1.7;80.6;98550;;;;
2021/12/30 06:12:48;;;;;;;168.4;188.1;;;;;;;1.7;81.1;98540;;;;
2021/12/30 06:22:49;;;;;;;171.1;191.1;;;;;;;1.9;80.9;98560;;;;
2021/12/30 06:32:48;;;;;;;171.1;191.1;;;;;;;1.9;80.7;98570;;;;
2021/12/30 06:43:48;;;;;;;171.1;191.1;;;;;;;2;80.4;98580;;;;
2021/12/30 06:53:48;;;;;;;177.5;199.1;;;;;;;2.1;80.4;98600;;;;
2021/12/30 07:03:48;;;;;;;177.5;199.1;;;;;;;2.1;80.2;98620;;;;
2021/12/30 07:13:48;;;;;;;177.5;199.1;;;;;;;2.1;80;98600;;;;
2021/12/30 07:24:49;;;;;;;168.1;188.5;;;;;;;2.2;80.1;98590;;;;
2021/12/30 07:35:48;;;;;;;168.1;188.5;;;;;;;2.4;79.7;98590;;;;
2021/12/30 07:45:48;;;;;;;173;193.8;;;;;;;2.6;79.6;98600;;;;
2021/12/30 07:55:49;;;;;;;173;193.8;;;;;;;2.9;79.7;98620;;;;
2021/12/30 08:05:49;;;;;;;173;193.8;;;;;;;2.9;78.4;98640;;;;
2021/12/30 08:16:48;;;;;;;174.1;194.7;;;;;;;3;78;98650;;;;
2021/12/30 08:27:48;;;;;;;174.1;194.7;;;;;;;3.2;78.1;98630;;;;
2021/12/30 08:37:48;;;;;;;174.1;194.7;;;;;;;3.4;77.7;98620;;;;
2021/12/30 08:47:48;;;;;;;177.5;199.4;;;;;;;3.6;77.6;98630;;;;
2021/12/30 08:58:48;;;;;;;177.5;199.4;;;;;;;3.9;77.8;98620;;;;
2021/12/30 09:09:48;;;;;;;177.5;199.4;;;;;;;4.3;77.1;98630;;;;
2021/12/30 09:20:48;;;;;;;184.5;207;;;;;;;4.6;76.1;98650;;;;
2021/12/30 09:30:48;;;;;;;184.5;207;;;;;;;4.8;75.3;98640;;;;
2021/12/30 09:41:48;;;;;;;184.5;207;;;;;;;5;74.8;98650;;;;
2021/12/30 09:51:48;;;;;;;213;240.4;;;;;;;5.2;73.8;98640;;;;
2021/12/30 10:02:48;;;;;;;213;240.4;;;;;;;5.4;73.5;98630;;;;
2021/12/30 10:12:48;;;;;;;213;240.4;;;;;;;5.4;72.7;98630;;;;
2021/12/30 10:22:48;;;;;;;233.8;262;;;;;;;5.3;73.1;98640;;;;
2021/12/30 10:33:48;;;;;;;233.8;262;;;;;;;5.5;73;98650;;;;
2021/12/30 10:44:48;;;;;;;222;254.5;;;;;;;5.7;73.7;98630;;;;
2021/12/30 10:54:48;;;;;;;222;254.5;;;;;;;5.9;72.2;98630;;;;
2021/12/30 11:05:48;;;;;;;222;254.5;;;;;;;6;72.8;98630;;;;
2021/12/30 11:15:48;;;;;;;163.9;196.4;;;;;;;5.9;72.2;98650;;;;
2021/12/30 11:25:48;;;;;;;163.9;196.4;;;;;;;5.9;72.5;98660;;;;
2021/12/30 11:36:48;;;;;;;163.9;196.4;;;;;;;5.9;72.6;98650;;;;
2021/12/30 11:47:48;;;;;;;135.9;156.9;;;;;;;5.9;72.5;98660;;;;
2021/12/30 11:57:48;;;;;;;135.9;156.9;;;;;;;5.8;73;98660;;;;
2021/12/30 12:07:48;;;;;;;135.9;156.9;;;;;;;5.7;73.3;98660;;;;
2021/12/30 12:18:48;;;;;;;119.5;137.8;;;;;;;5.7;73.7;98640;;;;
2021/12/30 12:29:49;;;;;;;119.5;137.8;;;;;;;5.7;73.7;98650;;;;
2021/12/30 12:40:48;;;;;;;119.5;137.8;;;;;;;5.6;74;98650;;;;
2021/12/30 12:51:48;;;;;;;78.5;89.8;;;;;;;5.8;74.1;98660;;;;
2021/12/30 13:02:48;;;;;;;78.5;89.8;;;;;;;6.1;74;98650;;;;
2021/12/30 13:12:49;;;;;;;78.5;89.8;;;;;;;6;73.9;98670;;;;
2021/12/30 13:23:48;;;;;;;72.5;87;;;;;;;6;74.5;98680;;;;
2021/12/30 13:33:49;;;;;;;72.5;87;;;;;;;6;74.5;98680;;;;
2021/12/30 13:43:48;;;;;;;72.5;87;;;;;;;5.8;74.9;98690;;;;
2021/12/30 13:54:48;;;;;;;69.4;80.3;;;;;;;5.7;75.1;98720;;;;
2021/12/30 14:04:48;;;;;;;69.4;80.3;;;;;;;5.6;75.2;98710;;;;
2021/12/30 14:14:48;;;;;;;95;110;;;;;;;5.5;75.6;98730;;;;
2021/12/30 14:25:48;;;;;;;95;110;;;;;;;5.4;77.8;98720;;;;
2021/12/30 14:36:48;;;;;;;95;110;;;;;;;5.6;78;98710;;;;
2021/12/30 14:47:51;;;;;;;76.2;88.1;;;;;;;5.7;79.7;98690;;;;
2021/12/30 14:58:48;;;;;;;76.2;88.1;;;;;;;6.3;80.1;98710;;;;
2021/12/30 15:09:51;;;;;;;76.2;88.1;;;;;;;6.8;79.1;98710;;;;
2021/12/30 15:19:48;;;;;;;15.2;21.1;;;;;;;7;78.6;98690;;;;
2021/12/30 15:29:48;;;;;;;15.2;21.1;;;;;;;7.2;77.9;98680;;;;
2021/12/30 15:40:50;;;;;;;15.2;21.1;;;;;;;7.2;77.5;98700;;;;
2021/12/30 15:50:48;;;;;;;10.7;14.1;;;;;;;7.2;77.1;98710;;;;
2021/12/30 16:01:48;;;;;;;10.7;14.1;;;;;;;6.9;76.9;98710;;;;
2021/12/30 16:11:49;;;;;;;10.7;14.1;;;;;;;6.8;76.8;98770;;;;
2021/12/30 16:21:48;;;;;;;43.6;49.5;;;;;;;6.6;77.1;98740;;;;
2021/12/30 16:31:48;;;;;;;43.6;49.5;;;;;;;6.5;78.3;98760;;;;
2021/12/30 16:42:48;;;;;;;43.6;49.5;;;;;;;6.5;78.4;98740;;;;
2021/12/30 16:53:48;;;;;;;37;45.4;;;;;;;6.5;78;98770;;;;
2021/12/30 17:04:49;;;;;;;37;45.4;;;;;;;6.4;78.6;98770;;;;
2021/12/30 17:15:48;;;;;;;32.2;40.3;;;;;;;6.2;78.2;98770;;;;
2021/12/30 17:26:48;;;;;;;32.2;40.3;;;;;;;6;79.2;98740;;;;
2021/12/30 17:36:49;;;;;;;32.2;40.3;;;;;;;5.9;79.3;98750;;;;
2021/12/30 17:47:48;;;;;;;29.7;37.5;;;;;;;6.1;79.6;98750;;;;
2021/12/30 17:57:49;;;;;;;29.7;37.5;;;;;;;6.4;79;98730;;;;
2021/12/30 18:07:48;;;;;;;29.7;37.5;;;;;;;6.6;78.8;98750;;;;
2021/12/30 18:18:48;;;;;;;16.2;22.1;;;;;;;6.7;78.4;98730;;;;
2021/12/30 18:28:49;;;;;;;16.2;22.1;;;;;;;6.9;78.1;98740;;;;
2021/12/30 18:39:48;;;;;;;16.2;22.1;;;;;;;7;77.6;98730;;;;
2021/12/30 18:49:49;;;;;;;11.3;15.8;;;;;;;7;77.4;98710;;;;
2021/12/30 19:00:49;;;;;;;11.3;15.8;;;;;;;7;77.4;98730;;;;
2021/12/30 19:11:52;;;;;;;11.3;15.8;;;;;;;7.2;77.3;98730;;;;
2021/12/30 19:21:49;;;;;;;12.4;16;;;;;;;7.4;77.1;98750;;;;
2021/12/30 19:31:49;;;;;;;12.4;16;;;;;;;7.4;76.8;98740;;;;
2021/12/30 19:41:49;;;;;;;12.4;16;;;;;;;7.3;76.8;98730;;;;
2021/12/30 19:51:49;;;;;;;23.9;31.4;;;;;;;7.3;77;98730;;;;
2021/12/30 20:01:49;;;;;;;23.9;31.4;;;;;;;7;77.1;98740;;;;
2021/12/30 20:11:49;;;;;;;23.9;31.4;;;;;;;6.9;77.2;98730;;;;
2021/12/30 20:22:49;;;;;;;40.3;51.6;;;;;;;6.7;77.6;98730;;;;
2021/12/30 20:33:49;;;;;;;40.3;51.6;;;;;;;6.9;77.4;98710;;;;
2021/12/30 20:43:49;;;;;;;44.2;58.3;;;;;;;6.9;77.5;98710;;;;
2021/12/30 20:54:49;;;;;;;44.2;58.3;;;;;;;6.9;77.3;98720;;;;
2021/12/30 21:04:49;;;;;;;44.2;58.3;;;;;;;6.9;77.5;98720;;;;
2021/12/30 21:15:49;;;;;;;47.7;57.7;;;;;;;7;78;98710;;;;
2021/12/30 21:25:49;;;;;;;47.7;57.7;;;;;;;7.1;79;98710;;;;
2021/12/30 21:35:49;;;;;;;47.7;57.7;;;;;;;7;79.6;98710;;;;
2021/12/30 21:46:49;;;;;;;41.9;49.9;;;;;;;7;81.1;98710;;;;
2021/12/30 21:57:49;;;;;;;41.9;49.9;;;;;;;7.1;82.3;98700;;;;
2021/12/30 22:08:49;;;;;;;41.9;49.9;;;;;;;7.5;84.2;98690;;;;
2021/12/30 22:18:49;;;;;;;25.7;30.1;;;;;;;7.7;84.7;98690;;;;
2021/12/30 22:29:49;;;;;;;25.7;30.1;;;;;;;8;85;98700;;;;
2021/12/30 22:39:49;;;;;;;25.7;30.1;;;;;;;8.1;84.9;98690;;;;
2021/12/30 22:49:49;;;;;;;14.7;17.9;;;;;;;8.3;84.5;98690;;;;
2021/12/30 23:00:51;;;;;;;14.7;17.9;;;;;;;8;83.2;98690;;;;
2021/12/30 23:10:49;;;;;;;14.7;17.9;;;;;;;8;83.5;98680;;;;
2021/12/30 23:21:49;;;;;;;26.5;33.1;;;;;;;8.1;83.9;98690;;;;
2021/12/30 23:31:49;;;;;;;26.5;33.1;;;;;;;8.4;85.6;98680;;;;
2021/12/30 23:41:49;;;;;;;26.5;33.1;;;;;;;8.7;86.4;98690;;;;
2021/12/30 23:51:49;;;;;;;21.2;24.2;;;;;;;9;86.1;98700;;;;
